createdAt,value
2022-10-24T00:01:19.657Z,9.00
2022-10-24T00:03:46.865Z,9.00
2022-10-24T00:06:14.412Z,8.90
2022-10-24T00:08:42.800Z,8.90
2022-10-24T00:11:13.871Z,8.90
2022-10-24T00:13:41.295Z,8.80
2022-10-24T00:16:08.769Z,8.70
2022-10-24T00:18:35.714Z,8.70
2022-10-24T00:21:02.750Z,8.60
2022-10-24T00:23:29.604Z,8.60
2022-10-24T00:25:56.816Z,8.50
2022-10-24T00:28:23.701Z,8.40
2022-10-24T00:30:53.720Z,8.40
2022-10-24T00:33:21.061Z,8.40
2022-10-24T00:35:48.071Z,8.40
2022-10-24T00:38:15.192Z,8.30
2022-10-24T00:40:42.205Z,8.30
2022-10-24T00:43:16.688Z,8.40
2022-10-24T00:45:43.473Z,8.30
2022-10-24T00:48:25.134Z,8.30
2022-10-24T00:50:57.905Z,8.40
2022-10-24T00:53:26.969Z,8.30
2022-10-24T00:55:56.849Z,8.30
2022-10-24T00:58:27.551Z,8.20
2022-10-24T01:00:54.522Z,8.20
2022-10-24T01:03:21.549Z,8.20
2022-10-24T01:06:22.237Z,8.20
2022-10-24T01:09:04.008Z,8.20
2022-10-24T01:11:50.989Z,8.30
2022-10-24T01:14:17.852Z,8.30
2022-10-24T01:17:02.691Z,8.40
2022-10-24T01:19:49.137Z,8.30
2022-10-24T01:22:25.371Z,8.40
2022-10-24T01:25:19.645Z,8.40
2022-10-24T01:28:13.083Z,8.30
2022-10-24T01:31:02.017Z,8.40
2022-10-24T01:33:35.119Z,8.40
2022-10-24T01:36:11.238Z,8.40
2022-10-24T01:38:52.604Z,8.50
2022-10-24T01:41:23.467Z,8.60
2022-10-24T01:44:07.611Z,8.90
2022-10-24T01:46:57.677Z,8.90
2022-10-24T01:49:35.632Z,9.30
2022-10-24T01:52:08.040Z,9.30
2022-10-24T01:54:37.563Z,9.60
2022-10-24T01:57:05.679Z,9.60
2022-10-24T01:59:32.501Z,9.80
2022-10-24T02:02:12.548Z,9.80
2022-10-24T02:04:46.153Z,9.90
2022-10-24T02:07:14.297Z,10.00
2022-10-24T02:09:43.703Z,10.20
2022-10-24T02:12:14.296Z,10.20
2022-10-24T02:14:46.921Z,10.20
2022-10-24T02:17:14.350Z,10.20
2022-10-24T02:19:41.699Z,10.30
2022-10-24T02:22:23.583Z,10.30
2022-10-24T02:25:11.125Z,10.30
2022-10-24T02:27:49.023Z,10.30
2022-10-24T02:30:22.121Z,10.40
2022-10-24T02:32:56.416Z,10.30
2022-10-24T02:35:27.141Z,10.30
2022-10-24T02:38:00.041Z,10.30
2022-10-24T02:40:27.224Z,10.40
2022-10-24T02:42:58.484Z,10.30
2022-10-24T02:45:26.264Z,10.40
2022-10-24T02:47:57.917Z,10.30
2022-10-24T02:50:26.165Z,10.30
2022-10-24T02:52:53.029Z,10.30
2022-10-24T02:55:20.014Z,10.30
2022-10-24T02:57:46.884Z,10.30
2022-10-24T03:00:14.319Z,10.20
2022-10-24T03:02:41.201Z,10.20
2022-10-24T03:05:08.424Z,10.20
2022-10-24T03:07:35.386Z,10.10
2022-10-24T03:10:02.405Z,10.20
2022-10-24T03:12:29.301Z,10.10
2022-10-24T03:14:56.175Z,10.10
2022-10-24T03:17:23.527Z,10.10
2022-10-24T03:19:50.480Z,10.10
2022-10-24T03:22:17.396Z,10.10
2022-10-24T03:24:54.787Z,10.10
2022-10-24T03:27:22.883Z,10.10
2022-10-24T03:29:49.772Z,10.10
2022-10-24T03:32:16.729Z,10.10
2022-10-24T03:34:43.751Z,10.10
2022-10-24T03:37:10.715Z,10.00
2022-10-24T03:39:37.694Z,10.10
2022-10-24T03:42:04.746Z,10.00
2022-10-24T03:44:31.768Z,10.00
2022-10-24T03:46:58.639Z,10.10
2022-10-24T03:49:25.583Z,10.10
2022-10-24T03:51:52.686Z,10.10
2022-10-24T03:54:19.663Z,10.10
2022-10-24T03:56:47.984Z,10.10
2022-10-24T03:59:15.379Z,10.10
2022-10-24T04:01:42.728Z,10.10
2022-10-24T04:04:09.864Z,10.10
2022-10-24T04:06:36.877Z,10.10
2022-10-24T04:09:04.552Z,10.10
2022-10-24T04:11:31.664Z,10.20
2022-10-24T04:13:59.105Z,10.20
2022-10-24T04:16:26.370Z,10.20
2022-10-24T04:18:53.575Z,10.30
2022-10-24T04:21:21.723Z,10.20
2022-10-24T04:23:49.276Z,10.20
2022-10-24T04:26:17.017Z,10.20
2022-10-24T04:28:46.930Z,10.20
2022-10-24T04:31:17.023Z,10.20
2022-10-24T04:33:46.800Z,10.20
2022-10-24T04:36:13.794Z,10.20
2022-10-24T04:38:41.154Z,10.20
2022-10-24T04:41:11.214Z,10.20
2022-10-24T04:43:39.708Z,10.20
2022-10-24T04:46:07.299Z,10.20
2022-10-24T04:48:34.812Z,10.20
2022-10-24T04:51:03.036Z,10.20
2022-10-24T04:53:30.277Z,10.20
2022-10-24T04:55:57.250Z,10.20
2022-10-24T04:58:24.117Z,10.20
2022-10-24T05:00:51.243Z,10.30
2022-10-24T05:03:19.052Z,10.30
2022-10-24T05:05:46.755Z,10.30
2022-10-24T05:08:13.831Z,10.30
2022-10-24T05:10:40.975Z,10.40
2022-10-24T05:13:07.838Z,10.40
2022-10-24T05:15:34.709Z,10.40
2022-10-24T05:18:01.751Z,10.40
2022-10-24T05:20:28.836Z,10.40
2022-10-24T05:22:56.094Z,10.40
2022-10-24T05:25:23.096Z,10.40
2022-10-24T05:27:50.007Z,10.30
2022-10-24T05:30:16.966Z,10.30
2022-10-24T05:32:44.176Z,10.30
2022-10-24T05:35:11.348Z,10.30
2022-10-24T05:37:39.236Z,10.30
2022-10-24T05:40:10.905Z,10.20
2022-10-24T05:42:38.848Z,10.20
2022-10-24T05:45:10.359Z,10.20
2022-10-24T05:47:37.441Z,10.30
2022-10-24T05:50:05.816Z,10.30
2022-10-24T05:52:32.863Z,10.30
2022-10-24T05:55:07.325Z,10.30
2022-10-24T05:57:36.760Z,10.20
2022-10-24T06:00:06.830Z,10.30
2022-10-24T06:02:33.778Z,10.30
2022-10-24T06:05:00.874Z,10.30
2022-10-24T06:07:27.856Z,10.30
2022-10-24T06:13:42.001Z,10.30
2022-10-24T06:16:10.441Z,10.30
2022-10-24T06:18:38.783Z,10.30
2022-10-24T06:21:07.512Z,10.40
2022-10-24T06:23:35.540Z,10.40
2022-10-24T06:26:02.728Z,10.40
2022-10-24T06:28:29.629Z,10.40
2022-10-24T06:30:56.565Z,10.40
2022-10-24T06:33:23.489Z,10.40
2022-10-24T06:35:50.376Z,10.40
2022-10-24T06:38:17.270Z,10.40
2022-10-24T06:40:44.242Z,10.40
2022-10-24T06:43:11.167Z,10.50
2022-10-24T06:45:38.832Z,10.40
2022-10-24T06:48:06.234Z,10.50
2022-10-24T06:50:33.170Z,10.50
2022-10-24T06:53:00.163Z,10.50
2022-10-24T06:55:27.139Z,10.50
2022-10-24T06:57:54.217Z,10.50
2022-10-24T07:00:21.212Z,10.50
2022-10-24T07:02:48.265Z,10.60
2022-10-24T07:05:15.287Z,10.60
2022-10-24T07:07:43.374Z,10.60
2022-10-24T07:10:13.921Z,10.60
2022-10-24T07:12:41.130Z,10.70
2022-10-24T07:15:08.285Z,10.70
2022-10-24T07:17:42.377Z,10.70
2022-10-24T07:20:10.110Z,10.70
2022-10-24T07:26:27.381Z,10.80
2022-10-24T07:28:58.586Z,10.80
2022-10-24T07:31:29.423Z,10.80
2022-10-24T07:33:56.759Z,10.90
2022-10-24T07:36:26.399Z,10.90
2022-10-24T07:42:34.116Z,11.00
2022-10-24T07:45:02.821Z,11.00
2022-10-24T07:47:29.815Z,11.10
2022-10-24T07:49:57.126Z,11.10
2022-10-24T07:52:24.151Z,11.20
2022-10-24T07:54:54.297Z,11.20
2022-10-24T07:57:22.261Z,11.40
2022-10-24T07:59:49.145Z,11.70
2022-10-24T08:02:17.548Z,11.80
2022-10-24T08:04:45.128Z,12.00
2022-10-24T08:07:15.859Z,11.90
2022-10-24T08:09:45.303Z,12.00
2022-10-24T08:12:12.493Z,11.80
2022-10-24T08:14:40.781Z,11.70
2022-10-24T08:17:08.339Z,11.60
2022-10-24T08:19:35.873Z,11.80
2022-10-24T08:22:03.713Z,11.70
2022-10-24T08:24:30.675Z,11.90
2022-10-24T08:26:57.628Z,11.90
2022-10-24T08:29:25.609Z,12.00
2022-10-24T08:31:54.885Z,11.90
2022-10-24T08:34:23.211Z,11.90
2022-10-24T08:36:50.581Z,11.90
2022-10-24T08:39:18.568Z,12.00
2022-10-24T08:41:47.403Z,12.10
2022-10-24T08:44:29.626Z,12.10
2022-10-24T08:47:06.479Z,12.00
2022-10-24T08:49:47.922Z,12.00
2022-10-24T08:52:37.603Z,12.00
2022-10-24T08:58:17.395Z,12.10
2022-10-24T09:00:49.952Z,12.20
2022-10-24T09:03:56.024Z,12.20
2022-10-24T09:06:27.081Z,12.30
2022-10-24T09:09:02.944Z,12.30
2022-10-24T09:11:56.993Z,12.50
2022-10-24T09:14:28.336Z,12.30
2022-10-24T09:19:58.619Z,12.50
2022-10-24T09:22:29.625Z,12.40
2022-10-24T09:25:08.356Z,12.30
2022-10-24T09:27:37.798Z,12.40
2022-10-24T09:30:07.182Z,12.20
2022-10-24T09:32:36.545Z,12.20
2022-10-24T09:35:27.808Z,12.20
2022-10-24T09:38:18.573Z,12.10
2022-10-24T09:40:51.353Z,12.20
2022-10-24T09:43:21.954Z,12.30
2022-10-24T09:46:01.275Z,12.20
2022-10-24T09:48:32.708Z,12.20
2022-10-24T09:51:00.460Z,12.20
2022-10-24T09:53:55.437Z,12.20
2022-10-24T09:56:22.328Z,12.20
2022-10-24T09:58:50.593Z,12.30
2022-10-24T10:01:21.294Z,12.30
2022-10-24T10:04:18.385Z,12.30
2022-10-24T10:06:50.328Z,12.40
2022-10-24T10:09:27.541Z,12.50
2022-10-24T10:12:02.972Z,12.40
2022-10-24T10:14:30.799Z,12.50
2022-10-24T10:17:06.426Z,12.60
2022-10-24T10:19:38.025Z,12.70
2022-10-24T10:22:20.996Z,12.70
2022-10-24T10:24:48.355Z,12.80
2022-10-24T10:27:26.548Z,12.90
2022-10-24T10:30:12.177Z,13.00
2022-10-24T10:32:53.791Z,13.00
2022-10-24T10:35:33.214Z,13.20
2022-10-24T10:38:34.120Z,13.40
2022-10-24T10:41:08.343Z,13.60
2022-10-24T10:43:48.460Z,13.90
2022-10-24T10:46:32.060Z,14.00
2022-10-24T10:49:23.167Z,14.20
2022-10-24T10:51:56.180Z,14.20
2022-10-24T10:54:46.383Z,14.40
2022-10-24T10:57:14.343Z,14.30
2022-10-24T10:59:44.771Z,14.50
2022-10-24T11:02:25.378Z,14.60
2022-10-24T11:05:02.526Z,14.70
2022-10-24T11:07:45.041Z,14.90
2022-10-24T11:10:24.840Z,14.80
2022-10-24T11:12:54.352Z,14.90
2022-10-24T11:15:29.426Z,15.00
2022-10-24T11:21:45.060Z,14.90
2022-10-24T11:24:18.920Z,15.10
2022-10-24T11:26:52.953Z,15.10
2022-10-24T11:29:31.322Z,15.10
2022-10-24T11:32:09.386Z,15.10
2022-10-24T11:34:44.571Z,15.20
2022-10-24T11:37:21.151Z,15.20
2022-10-24T11:40:03.336Z,15.20
2022-10-24T11:43:08.099Z,15.20
2022-10-24T11:45:58.152Z,15.20
2022-10-24T11:49:11.903Z,15.30
2022-10-24T11:51:47.687Z,15.30
2022-10-24T11:54:22.824Z,15.40
2022-10-24T11:56:57.770Z,15.50
2022-10-24T11:59:25.717Z,15.30
2022-10-24T12:01:55.714Z,15.10
2022-10-24T12:04:37.268Z,15.10
2022-10-24T12:07:36.669Z,14.90
2022-10-24T12:14:21.017Z,15.10
2022-10-24T12:16:53.296Z,15.20
2022-10-24T12:19:22.540Z,15.20
2022-10-24T12:21:57.604Z,15.20
2022-10-24T12:24:33.311Z,14.90
2022-10-24T12:27:20.341Z,14.90
2022-10-24T12:30:09.399Z,14.80
2022-10-24T12:32:45.240Z,14.60
2022-10-24T12:35:31.632Z,14.50
2022-10-24T12:37:59.415Z,14.50
2022-10-24T12:40:47.989Z,14.60
2022-10-24T12:43:34.697Z,14.50
2022-10-24T12:46:16.698Z,14.30
2022-10-24T12:49:01.221Z,14.20
2022-10-24T12:55:51.904Z,14.00
2022-10-24T12:58:21.598Z,14.00
2022-10-24T13:01:01.179Z,13.90
2022-10-24T13:03:55.500Z,13.90
2022-10-24T13:06:58.175Z,14.00
2022-10-24T13:09:38.445Z,14.00
2022-10-24T13:12:43.886Z,14.00
2022-10-24T13:15:19.904Z,14.10
2022-10-24T13:18:23.480Z,14.10
2022-10-24T13:21:44.108Z,14.20
2022-10-24T13:24:24.440Z,14.20
2022-10-24T13:26:55.850Z,14.20
2022-10-24T13:29:28.578Z,14.20
2022-10-24T13:32:18.690Z,14.20
2022-10-24T13:34:50.599Z,14.10
2022-10-24T13:37:27.439Z,14.00
2022-10-24T13:40:27.078Z,14.00
2022-10-24T13:43:07.455Z,14.00
2022-10-24T13:45:57.930Z,14.00
2022-10-24T13:48:28.869Z,14.00
2022-10-24T13:51:34.950Z,14.00
2022-10-24T13:54:09.306Z,13.90
2022-10-24T13:56:37.899Z,13.80
2022-10-24T13:59:04.743Z,13.80
2022-10-24T14:01:31.894Z,13.80
2022-10-24T14:04:00.752Z,13.90
2022-10-24T14:06:33.807Z,13.90
2022-10-24T14:09:11.739Z,13.90
2022-10-24T14:11:46.368Z,14.00
2022-10-24T14:14:29.202Z,14.00
2022-10-24T14:17:29.380Z,14.10
2022-10-24T14:20:24.339Z,14.00
2022-10-24T14:22:51.200Z,14.10
2022-10-24T14:25:35.353Z,14.10
2022-10-24T14:28:10.449Z,14.10
2022-10-24T14:30:37.421Z,14.10
2022-10-24T14:33:28.437Z,14.10
2022-10-24T14:35:58.184Z,14.10
2022-10-24T14:38:27.709Z,14.10
2022-10-24T14:41:07.905Z,14.00
2022-10-24T14:43:40.019Z,13.90
2022-10-24T14:46:13.226Z,13.90
2022-10-24T14:48:43.518Z,13.90
2022-10-24T14:51:37.703Z,13.90
2022-10-24T14:54:19.310Z,13.80
2022-10-24T15:00:39.690Z,13.70
2022-10-24T15:03:07.087Z,13.70
2022-10-24T15:05:35.639Z,13.60
2022-10-24T15:08:21.716Z,13.60
2022-10-24T15:10:49.878Z,13.70
2022-10-24T15:13:21.384Z,13.60
2022-10-24T15:15:53.924Z,13.60
2022-10-24T15:18:23.882Z,13.50
2022-10-24T15:21:02.162Z,13.60
2022-10-24T15:23:35.317Z,13.50
2022-10-24T15:26:09.895Z,13.50
2022-10-24T15:28:36.760Z,13.40
2022-10-24T15:31:03.992Z,13.40
2022-10-24T15:33:32.387Z,13.40
2022-10-24T15:35:59.449Z,13.40
2022-10-24T15:38:26.387Z,13.40
2022-10-24T15:40:53.802Z,13.30
2022-10-24T15:43:20.784Z,13.40
2022-10-24T15:45:47.698Z,13.30
2022-10-24T15:48:14.621Z,13.30
2022-10-24T15:50:46.698Z,13.30
2022-10-24T15:53:21.813Z,13.30
2022-10-24T15:55:48.894Z,13.30
2022-10-24T15:58:18.167Z,13.30
2022-10-24T16:00:45.615Z,13.30
2022-10-24T16:03:17.314Z,13.30
2022-10-24T16:05:47.701Z,13.30
2022-10-24T16:08:16.349Z,13.30
2022-10-24T16:10:43.745Z,13.30
2022-10-24T16:13:13.537Z,13.30
2022-10-24T16:15:41.427Z,13.30
2022-10-24T16:18:09.258Z,13.30
2022-10-24T16:20:36.320Z,13.30
2022-10-24T16:23:04.575Z,13.20
2022-10-24T16:25:37.595Z,13.30
2022-10-24T16:28:06.010Z,13.30
2022-10-24T16:30:35.561Z,13.20
2022-10-24T16:33:02.535Z,13.20
2022-10-24T16:35:32.917Z,13.20
2022-10-24T16:38:01.828Z,13.10
2022-10-24T16:40:31.212Z,13.00
2022-10-24T16:42:59.622Z,12.90
2022-10-24T16:45:26.567Z,12.90
2022-10-24T16:47:53.603Z,12.90
2022-10-24T16:50:26.802Z,12.80
2022-10-24T16:52:55.737Z,12.80
2022-10-24T16:55:23.342Z,12.70
2022-10-24T16:57:50.646Z,12.70
2022-10-24T17:00:19.528Z,12.60
2022-10-24T17:02:50.530Z,12.60
2022-10-24T17:05:20.568Z,12.60
2022-10-24T17:07:47.941Z,12.60
2022-10-24T17:10:18.401Z,12.60
2022-10-24T17:12:47.793Z,12.60
2022-10-24T17:15:18.138Z,12.60
2022-10-24T17:17:48.371Z,12.60
2022-10-24T17:20:15.968Z,12.50
2022-10-24T17:22:44.538Z,12.50
2022-10-24T17:25:24.972Z,12.50
2022-10-24T17:27:52.340Z,12.50
2022-10-24T17:30:22.632Z,12.40
2022-10-24T17:32:50.054Z,12.50
2022-10-24T17:35:20.735Z,12.40
2022-10-24T17:37:52.728Z,12.40
2022-10-24T17:40:22.711Z,12.40
2022-10-24T17:42:49.826Z,12.40
2022-10-24T17:45:25.192Z,12.40
2022-10-24T17:47:52.329Z,12.40
2022-10-24T17:50:19.543Z,12.40
2022-10-24T17:52:51.036Z,12.40
2022-10-24T17:58:11.909Z,12.40
2022-10-24T18:00:39.305Z,12.30
2022-10-24T18:03:08.673Z,12.30
2022-10-24T18:05:38.306Z,12.30
2022-10-24T18:11:53.102Z,12.30
2022-10-24T18:14:20.013Z,12.10
2022-10-24T18:16:47.081Z,12.10
2022-10-24T18:19:14.030Z,12.10
2022-10-24T18:25:29.096Z,12.00
2022-10-24T18:27:57.009Z,12.00
2022-10-24T18:30:24.111Z,11.90
2022-10-24T18:32:51.194Z,11.90
2022-10-24T18:35:18.207Z,11.90
2022-10-24T18:37:45.163Z,11.90
2022-10-24T18:40:12.902Z,11.90
2022-10-24T18:43:05.338Z,11.90
2022-10-24T18:45:33.111Z,11.90
2022-10-24T18:48:00.799Z,11.90
2022-10-24T18:50:29.087Z,11.90
2022-10-24T18:53:06.078Z,11.90
2022-10-24T18:55:34.691Z,12.00
2022-10-24T18:58:01.919Z,12.00
2022-10-24T19:04:25.713Z,12.10
2022-10-24T19:06:59.636Z,12.10
2022-10-24T19:09:27.278Z,12.20
2022-10-24T19:11:54.318Z,12.20
2022-10-24T19:14:21.678Z,12.30
2022-10-24T19:16:50.663Z,12.30
2022-10-24T19:19:30.262Z,12.30
2022-10-24T19:21:57.274Z,12.20
2022-10-24T19:24:24.219Z,12.20
2022-10-24T19:26:51.209Z,12.20
2022-10-24T19:29:18.267Z,12.20
2022-10-24T19:31:45.950Z,12.00
2022-10-24T19:34:13.022Z,12.00
2022-10-24T19:36:40.090Z,11.90
2022-10-24T19:39:07.587Z,11.90
2022-10-24T19:41:35.616Z,11.90
2022-10-24T19:44:03.636Z,11.90
2022-10-24T19:46:30.593Z,11.90
2022-10-24T19:48:57.587Z,12.00
2022-10-24T19:51:25.388Z,12.00
2022-10-24T19:53:53.214Z,12.10
2022-10-24T19:56:25.417Z,12.20
2022-10-24T19:58:53.990Z,12.10
2022-10-24T20:01:23.723Z,12.00
2022-10-24T20:03:51.518Z,11.90
2022-10-24T20:06:21.826Z,11.90
2022-10-24T20:08:49.813Z,11.90
2022-10-24T20:11:20.732Z,11.90
2022-10-24T20:13:48.620Z,12.10
2022-10-24T20:16:15.561Z,12.40
2022-10-24T20:18:43.819Z,12.40
2022-10-24T20:21:14.057Z,12.40
2022-10-24T20:23:41.810Z,12.50
2022-10-24T20:26:17.510Z,12.60
2022-10-24T20:28:46.448Z,12.70
2022-10-24T20:31:39.305Z,12.70
2022-10-24T20:34:11.134Z,12.80
2022-10-24T20:36:40.563Z,12.80
2022-10-24T20:39:08.778Z,12.90
2022-10-24T20:41:36.859Z,13.00
2022-10-24T20:44:04.582Z,13.40
2022-10-24T20:46:31.818Z,13.20
2022-10-24T20:48:58.799Z,13.30
2022-10-24T20:51:25.747Z,13.40
2022-10-24T20:53:52.734Z,13.50
2022-10-24T20:56:22.595Z,13.50
2022-10-24T20:58:51.070Z,13.40
2022-10-24T21:01:21.196Z,13.30
2022-10-24T21:03:49.416Z,13.40
2022-10-24T21:06:25.471Z,13.40
2022-10-24T21:08:54.441Z,13.30
2022-10-24T21:11:26.010Z,13.30
2022-10-24T21:13:55.286Z,13.30
2022-10-24T21:16:22.668Z,13.20
2022-10-24T21:18:49.776Z,13.10
2022-10-24T21:21:20.849Z,13.20
2022-10-24T21:23:52.523Z,13.20
2022-10-24T21:26:20.242Z,13.40
2022-10-24T21:28:47.412Z,13.40
2022-10-24T21:31:17.159Z,13.40
2022-10-24T21:33:44.571Z,13.30
2022-10-24T21:36:16.117Z,13.20
2022-10-24T21:38:47.107Z,13.40
2022-10-24T21:45:01.075Z,13.40
2022-10-24T21:47:28.315Z,13.40
2022-10-24T21:49:55.167Z,13.50
2022-10-24T21:52:22.146Z,13.40
2022-10-24T21:54:49.054Z,13.40
2022-10-24T21:57:15.975Z,13.30
2022-10-24T22:03:30.210Z,13.40
2022-10-24T22:05:57.703Z,13.30
2022-10-24T22:08:24.924Z,13.20
2022-10-24T22:11:00.347Z,13.50
2022-10-24T22:13:28.042Z,13.40
2022-10-24T22:15:55.809Z,13.40
2022-10-24T22:18:24.307Z,13.40
2022-10-24T22:20:51.224Z,13.50
2022-10-24T22:23:18.491Z,13.50
2022-10-24T22:25:45.490Z,13.50
2022-10-24T22:28:12.793Z,13.40
2022-10-24T22:30:40.612Z,13.30
2022-10-24T22:33:16.529Z,13.10
2022-10-24T22:35:45.152Z,13.20
2022-10-24T22:38:12.291Z,13.40
2022-10-24T22:40:39.456Z,13.20
2022-10-24T22:43:06.652Z,13.40
2022-10-24T22:45:33.921Z,13.20
2022-10-24T22:48:06.803Z,13.30
2022-10-24T22:50:42.492Z,13.40
2022-10-24T22:53:14.526Z,13.30
2022-10-24T22:56:06.183Z,13.50
2022-10-24T22:58:33.595Z,13.40
2022-10-24T23:01:28.623Z,13.30
2022-10-24T23:04:05.811Z,13.30
2022-10-24T23:06:45.878Z,13.30
2022-10-24T23:09:13.175Z,13.20
2022-10-24T23:11:40.887Z,13.30
2022-10-24T23:14:08.170Z,13.20
2022-10-24T23:16:47.049Z,13.10
2022-10-24T23:19:22.978Z,13.10
2022-10-24T23:22:13.522Z,13.20
2022-10-24T23:24:40.722Z,13.20
2022-10-24T23:27:13.522Z,13.20
2022-10-24T23:29:43.171Z,13.40
2022-10-24T23:32:25.583Z,13.20
2022-10-24T23:34:53.751Z,13.20
2022-10-24T23:37:20.550Z,13.10
2022-10-24T23:39:47.716Z,13.10
2022-10-24T23:42:14.881Z,12.90
2022-10-24T23:44:42.046Z,12.90
2022-10-24T23:47:43.046Z,12.80
2022-10-24T23:50:17.501Z,12.90
2022-10-24T23:52:58.146Z,12.90
2022-10-24T23:55:25.401Z,13.10
2022-10-24T23:57:52.296Z,13.00
